FSM15T LHBP-EVRA
Flight info
| Callsign | FSM15T |
|---|---|
| Flight time | 1h 25m |
| Altitude | 30000 |
| Route | LITKU Y301 KALIF DCT KELEL DCT NEPOX DCT UNPEG DCT BOKSU DCT GUNTA |
| Aircraft | A319/M-SDE3FGHIRWY/LB1 |
Departure
| Time | 2026-05-07 09:44 |
|---|---|
| Airport | Budapest Liszt Ferenc International Airport (LHBP) |
Arrival
| Time | 2026-05-07 11:09 |
|---|---|
| Airport | Riga International Airport (EVRA) |
| Time | Latitude | Longitude | Altitude | Speed | Heading |
|---|---|---|---|---|---|
| 2026-05-07 09:10 | 47.43559 | 19.26385 | 458 ft | 0 kts | 222° |
| 2026-05-07 09:32 | 47.43570 | 19.26399 | 457 ft | 4 kts | 226° |
| 2026-05-07 09:33 | 47.43587 | 19.26429 | 458 ft | 4 kts | 243° |
| 2026-05-07 09:33 | 47.43592 | 19.26463 | 454 ft | 4 kts | 294° |
| 2026-05-07 09:33 | 47.43589 | 19.26474 | 454 ft | 0 kts | 313° |
| 2026-05-07 09:37 | 47.43589 | 19.26473 | 454 ft | 0 kts | 313° |
| 2026-05-07 09:37 | 47.43594 | 19.26465 | 455 ft | 1 kts | 312° |
| 2026-05-07 09:38 | 47.43603 | 19.26452 | 458 ft | 2 kts | 312° |
| 2026-05-07 09:38 | 47.43614 | 19.26433 | 458 ft | 3 kts | 312° |
| 2026-05-07 09:38 | 47.43629 | 19.26409 | 457 ft | 4 kts | 312° |
| 2026-05-07 09:38 | 47.43647 | 19.26380 | 458 ft | 4 kts | 312° |
| 2026-05-07 09:39 | 47.43671 | 19.26333 | 458 ft | 8 kts | 300° |
| 2026-05-07 09:39 | 47.43678 | 19.26237 | 457 ft | 11 kts | 267° |
| 2026-05-07 09:39 | 47.43675 | 19.26124 | 457 ft | 11 kts | 272° |
| 2026-05-07 09:39 | 47.43709 | 19.26017 | 457 ft | 12 kts | 309° |
| 2026-05-07 09:40 | 47.43722 | 19.25906 | 457 ft | 12 kts | 241° |
| 2026-05-07 09:40 | 47.43662 | 19.25815 | 457 ft | 13 kts | 222° |
| 2026-05-07 09:40 | 47.43595 | 19.25725 | 457 ft | 13 kts | 222° |
| 2026-05-07 09:40 | 47.43525 | 19.25631 | 456 ft | 14 kts | 222° |
| 2026-05-07 09:41 | 47.43452 | 19.25532 | 457 ft | 14 kts | 222° |
| 2026-05-07 09:41 | 47.43377 | 19.25431 | 457 ft | 15 kts | 222° |
| 2026-05-07 09:41 | 47.43302 | 19.25330 | 457 ft | 14 kts | 222° |
| 2026-05-07 09:41 | 47.43249 | 19.25260 | 457 ft | 8 kts | 222° |
| 2026-05-07 09:42 | 47.43203 | 19.25199 | 457 ft | 9 kts | 222° |
| 2026-05-07 09:42 | 47.43157 | 19.25137 | 457 ft | 8 kts | 222° |
| 2026-05-07 09:42 | 47.43113 | 19.25079 | 455 ft | 9 kts | 222° |
| 2026-05-07 09:42 | 47.43082 | 19.24996 | 457 ft | 10 kts | 265° |
| 2026-05-07 09:43 | 47.43118 | 19.24911 | 457 ft | 10 kts | 312° |
| 2026-05-07 09:43 | 47.43198 | 19.24781 | 456 ft | 41 kts | 312° |
| 2026-05-07 09:43 | 47.43569 | 19.24175 | 453 ft | 115 kts | 311° |
| 2026-05-07 09:43 | 47.44238 | 19.23107 | 563 ft | 158 kts | 309° |
| 2026-05-07 09:44 | 47.45004 | 19.21984 | 1225 ft | 154 kts | 309° |
| 2026-05-07 09:44 | 47.45725 | 19.20793 | 1874 ft | 157 kts | 307° |
| 2026-05-07 09:44 | 47.46457 | 19.19584 | 2494 ft | 162 kts | 307° |
| 2026-05-07 09:44 | 47.47247 | 19.18266 | 2908 ft | 179 kts | 306° |
| 2026-05-07 09:45 | 47.48103 | 19.16822 | 3365 ft | 196 kts | 307° |
| 2026-05-07 09:45 | 47.49143 | 19.15340 | 3732 ft | 221 kts | 315° |
| 2026-05-07 09:45 | 47.50422 | 19.13805 | 4059 ft | 252 kts | 317° |
| 2026-05-07 09:45 | 47.51868 | 19.12140 | 4676 ft | 272 kts | 318° |
| 2026-05-07 09:46 | 47.53354 | 19.10408 | 5693 ft | 272 kts | 317° |
| 2026-05-07 09:46 | 47.54832 | 19.08648 | 6698 ft | 274 kts | 317° |
| 2026-05-07 09:46 | 47.56319 | 19.06849 | 7596 ft | 278 kts | 317° |
| 2026-05-07 09:46 | 47.57823 | 19.05008 | 8482 ft | 283 kts | 317° |
| 2026-05-07 09:47 | 47.59351 | 19.03135 | 9382 ft | 288 kts | 316° |
| 2026-05-07 09:47 | 47.60909 | 19.01229 | 10216 ft | 294 kts | 317° |
| 2026-05-07 09:47 | 47.62753 | 18.99633 | 10562 ft | 325 kts | 338° |
| 2026-05-07 09:47 | 47.65073 | 18.99055 | 10848 ft | 354 kts | 359° |
| 2026-05-07 09:48 | 47.67528 | 18.99804 | 11398 ft | 369 kts | 21° |
| 2026-05-07 09:48 | 47.69719 | 19.01831 | 12108 ft | 376 kts | 41° |
| 2026-05-07 09:48 | 47.71663 | 19.04458 | 12866 ft | 381 kts | 43° |
| 2026-05-07 09:48 | 47.73614 | 19.07151 | 13608 ft | 386 kts | 43° |
| 2026-05-07 09:49 | 47.75581 | 19.09892 | 14278 ft | 390 kts | 43° |
| 2026-05-07 09:49 | 47.77567 | 19.12672 | 14921 ft | 394 kts | 43° |
| 2026-05-07 09:49 | 47.79575 | 19.15481 | 15571 ft | 399 kts | 43° |
| 2026-05-07 09:49 | 47.81613 | 19.18322 | 16225 ft | 403 kts | 43° |
| 2026-05-07 09:50 | 47.83669 | 19.21184 | 16873 ft | 407 kts | 43° |
| 2026-05-07 09:50 | 47.85747 | 19.24077 | 17522 ft | 411 kts | 43° |
| 2026-05-07 09:50 | 47.87821 | 19.26966 | 18173 ft | 416 kts | 43° |
| 2026-05-07 09:50 | 47.89940 | 19.29925 | 18741 ft | 420 kts | 43° |
| 2026-05-07 09:51 | 47.92107 | 19.32956 | 19303 ft | 424 kts | 43° |
| 2026-05-07 09:51 | 47.94266 | 19.35979 | 19863 ft | 428 kts | 44° |
| 2026-05-07 09:51 | 47.96414 | 19.38995 | 20424 ft | 431 kts | 44° |
| 2026-05-07 09:51 | 47.98605 | 19.42074 | 20968 ft | 435 kts | 44° |
| 2026-05-07 09:52 | 48.00816 | 19.45186 | 21501 ft | 438 kts | 44° |
| 2026-05-07 09:52 | 48.03040 | 19.48319 | 22027 ft | 442 kts | 44° |
| 2026-05-07 09:52 | 48.05323 | 19.51410 | 22574 ft | 444 kts | 39° |
| 2026-05-07 09:52 | 48.07881 | 19.54002 | 23129 ft | 446 kts | 29° |
| 2026-05-07 09:53 | 48.10713 | 19.55941 | 23609 ft | 449 kts | 19° |
| 2026-05-07 09:53 | 48.13737 | 19.57153 | 24013 ft | 451 kts | 9° |
| 2026-05-07 09:53 | 48.16827 | 19.58024 | 24442 ft | 454 kts | 9° |
| 2026-05-07 09:53 | 48.19946 | 19.58920 | 24795 ft | 458 kts | 9° |
| 2026-05-07 09:54 | 48.23106 | 19.59576 | 25158 ft | 459 kts | 1° |
| 2026-05-07 09:54 | 48.26296 | 19.59551 | 25545 ft | 460 kts | 353° |
| 2026-05-07 09:54 | 48.29498 | 19.59239 | 25944 ft | 462 kts | 353° |
| 2026-05-07 09:54 | 48.32714 | 19.58925 | 26335 ft | 464 kts | 353° |
| 2026-05-07 09:55 | 48.35948 | 19.58610 | 26729 ft | 467 kts | 353° |
| 2026-05-07 09:55 | 48.39200 | 19.58293 | 27110 ft | 470 kts | 354° |
| 2026-05-07 09:55 | 48.42467 | 19.57978 | 27483 ft | 472 kts | 354° |
| 2026-05-07 09:55 | 48.45761 | 19.57702 | 27848 ft | 476 kts | 357° |
| 2026-05-07 09:56 | 48.49075 | 19.57999 | 28209 ft | 481 kts | 6° |
| 2026-05-07 09:56 | 48.52360 | 19.59048 | 28563 ft | 485 kts | 15° |
| 2026-05-07 09:56 | 48.55531 | 19.60839 | 28865 ft | 489 kts | 25° |
| 2026-05-07 09:56 | 48.58602 | 19.63087 | 29190 ft | 491 kts | 26° |
| 2026-05-07 09:57 | 48.61677 | 19.65351 | 29528 ft | 494 kts | 26° |
| 2026-05-07 09:57 | 48.64773 | 19.67632 | 29852 ft | 496 kts | 26° |
| 2026-05-07 09:57 | 48.67876 | 19.69923 | 29965 ft | 492 kts | 26° |
| 2026-05-07 09:58 | 48.73973 | 19.74432 | 29968 ft | 487 kts | 26° |
| 2026-05-07 09:58 | 48.80061 | 19.78944 | 29970 ft | 487 kts | 27° |
| 2026-05-07 09:59 | 48.86100 | 19.83450 | 29971 ft | 487 kts | 27° |
| 2026-05-07 09:59 | 48.92178 | 19.87992 | 29977 ft | 486 kts | 27° |
| 2026-05-07 10:00 | 48.98258 | 19.92531 | 29942 ft | 487 kts | 27° |
| 2026-05-07 10:00 | 49.04355 | 19.97098 | 29943 ft | 489 kts | 27° |
| 2026-05-07 10:01 | 49.10465 | 20.01698 | 29955 ft | 490 kts | 27° |
| 2026-05-07 10:01 | 49.16577 | 20.06311 | 29949 ft | 491 kts | 26° |
| 2026-05-07 10:02 | 49.22693 | 20.10946 | 29917 ft | 491 kts | 26° |
| 2026-05-07 10:02 | 49.28820 | 20.15592 | 29913 ft | 492 kts | 26° |
| 2026-05-07 10:03 | 49.35012 | 20.20039 | 29912 ft | 492 kts | 22° |
| 2026-05-07 10:03 | 49.41403 | 20.23836 | 29908 ft | 492 kts | 20° |
| 2026-05-07 10:04 | 49.47828 | 20.27465 | 29915 ft | 492 kts | 20° |
| 2026-05-07 10:04 | 49.54221 | 20.31239 | 29915 ft | 492 kts | 21° |
| 2026-05-07 10:05 | 49.60583 | 20.35146 | 29910 ft | 492 kts | 21° |
| 2026-05-07 10:05 | 49.66944 | 20.39066 | 29900 ft | 492 kts | 21° |
| 2026-05-07 10:06 | 49.73312 | 20.42959 | 29899 ft | 493 kts | 21° |
| 2026-05-07 10:06 | 49.79695 | 20.46855 | 29901 ft | 493 kts | 20° |
| 2026-05-07 10:07 | 49.86075 | 20.50766 | 29901 ft | 493 kts | 20° |
| 2026-05-07 10:07 | 49.92454 | 20.54696 | 29902 ft | 494 kts | 20° |
| 2026-05-07 10:08 | 49.98794 | 20.58615 | 29906 ft | 494 kts | 20° |
| 2026-05-07 10:08 | 50.05186 | 20.62578 | 29902 ft | 495 kts | 20° |
| 2026-05-07 10:09 | 50.11578 | 20.66552 | 29903 ft | 495 kts | 20° |
| 2026-05-07 10:09 | 50.17979 | 20.70554 | 29902 ft | 495 kts | 20° |
| 2026-05-07 10:10 | 50.24377 | 20.74559 | 29901 ft | 496 kts | 20° |
| 2026-05-07 10:10 | 50.30780 | 20.78556 | 29898 ft | 496 kts | 20° |
| 2026-05-07 10:11 | 50.37189 | 20.82572 | 29898 ft | 496 kts | 20° |
| 2026-05-07 10:11 | 50.43587 | 20.86611 | 29896 ft | 496 kts | 20° |
| 2026-05-07 10:12 | 50.49988 | 20.90662 | 29893 ft | 496 kts | 20° |
| 2026-05-07 10:12 | 50.56390 | 20.94716 | 29892 ft | 496 kts | 20° |
| 2026-05-07 10:13 | 50.62796 | 20.98792 | 29896 ft | 497 kts | 19° |
| 2026-05-07 10:13 | 50.69208 | 21.02882 | 29893 ft | 497 kts | 19° |
| 2026-05-07 10:14 | 50.75618 | 21.06987 | 29891 ft | 497 kts | 20° |
| 2026-05-07 10:14 | 50.82026 | 21.11109 | 29891 ft | 497 kts | 20° |
| 2026-05-07 10:15 | 50.88435 | 21.15235 | 29897 ft | 497 kts | 19° |
| 2026-05-07 10:15 | 50.94844 | 21.19358 | 29923 ft | 497 kts | 20° |
| 2026-05-07 10:16 | 51.01257 | 21.23500 | 29888 ft | 498 kts | 20° |
| 2026-05-07 10:16 | 51.07670 | 21.27667 | 29884 ft | 498 kts | 20° |
| 2026-05-07 10:17 | 51.14072 | 21.31851 | 29883 ft | 497 kts | 20° |
| 2026-05-07 10:17 | 51.20470 | 21.36032 | 29878 ft | 497 kts | 20° |
| 2026-05-07 10:18 | 51.26867 | 21.40220 | 29878 ft | 497 kts | 20° |
| 2026-05-07 10:18 | 51.33254 | 21.44412 | 29895 ft | 496 kts | 20° |
| 2026-05-07 10:19 | 51.39625 | 21.48614 | 29892 ft | 495 kts | 20° |
| 2026-05-07 10:19 | 51.45990 | 21.52823 | 29888 ft | 495 kts | 20° |
| 2026-05-07 10:20 | 51.52354 | 21.57038 | 29880 ft | 495 kts | 20° |
| 2026-05-07 10:20 | 51.58669 | 21.61241 | 29875 ft | 495 kts | 20° |
| 2026-05-07 10:21 | 51.65070 | 21.65518 | 29874 ft | 495 kts | 20° |
| 2026-05-07 10:21 | 51.71382 | 21.69745 | 29881 ft | 494 kts | 20° |
| 2026-05-07 10:22 | 51.77727 | 21.74006 | 29898 ft | 493 kts | 21° |
| 2026-05-07 10:22 | 51.84054 | 21.78267 | 29893 ft | 492 kts | 21° |
| 2026-05-07 10:23 | 51.90371 | 21.82516 | 29887 ft | 491 kts | 21° |
| 2026-05-07 10:23 | 51.96674 | 21.86776 | 29884 ft | 491 kts | 21° |
| 2026-05-07 10:24 | 52.01910 | 21.90341 | 29871 ft | 491 kts | 21° |
| 2026-05-07 10:24 | 52.08205 | 21.94638 | 29866 ft | 491 kts | 21° |
| 2026-05-07 10:25 | 52.14500 | 21.98947 | 29862 ft | 491 kts | 21° |
| 2026-05-07 10:25 | 52.20870 | 22.02894 | 29871 ft | 490 kts | 16° |
| 2026-05-07 10:26 | 52.27370 | 22.06202 | 29872 ft | 489 kts | 14° |
| 2026-05-07 10:26 | 52.33887 | 22.09437 | 29871 ft | 489 kts | 15° |
| 2026-05-07 10:27 | 52.40370 | 22.12846 | 29881 ft | 489 kts | 16° |
| 2026-05-07 10:27 | 52.46831 | 22.16363 | 29878 ft | 489 kts | 16° |
| 2026-05-07 10:28 | 52.53287 | 22.19877 | 29879 ft | 488 kts | 16° |
| 2026-05-07 10:28 | 52.59741 | 22.23352 | 29877 ft | 488 kts | 16° |
| 2026-05-07 10:29 | 52.66195 | 22.26837 | 29879 ft | 488 kts | 15° |
| 2026-05-07 10:29 | 52.72639 | 22.30331 | 29878 ft | 487 kts | 15° |
| 2026-05-07 10:30 | 52.82299 | 22.35592 | 29870 ft | 487 kts | 16° |
| 2026-05-07 10:30 | 52.88723 | 22.39116 | 29873 ft | 486 kts | 16° |
| 2026-05-07 10:31 | 52.95147 | 22.42644 | 29870 ft | 486 kts | 16° |
| 2026-05-07 10:31 | 53.01571 | 22.46177 | 29875 ft | 486 kts | 16° |
| 2026-05-07 10:32 | 53.08000 | 22.49721 | 29875 ft | 487 kts | 16° |
| 2026-05-07 10:32 | 53.14378 | 22.53265 | 29882 ft | 487 kts | 16° |
| 2026-05-07 10:33 | 53.20801 | 22.56848 | 29884 ft | 487 kts | 16° |
| 2026-05-07 10:33 | 53.27232 | 22.60373 | 29882 ft | 486 kts | 14° |
| 2026-05-07 10:34 | 53.33750 | 22.63314 | 29890 ft | 485 kts | 11° |
| 2026-05-07 10:34 | 53.40314 | 22.65918 | 29877 ft | 485 kts | 10° |
| 2026-05-07 10:35 | 53.46876 | 22.68642 | 29863 ft | 486 kts | 11° |
| 2026-05-07 10:35 | 53.53417 | 22.71516 | 29860 ft | 486 kts | 12° |
| 2026-05-07 10:36 | 53.59959 | 22.74431 | 29885 ft | 486 kts | 11° |
| 2026-05-07 10:36 | 53.66505 | 22.77302 | 29881 ft | 486 kts | 11° |
| 2026-05-07 10:37 | 53.73052 | 22.80156 | 29878 ft | 486 kts | 11° |
| 2026-05-07 10:37 | 53.79596 | 22.83029 | 29875 ft | 486 kts | 11° |
| 2026-05-07 10:38 | 53.86143 | 22.85930 | 29873 ft | 486 kts | 11° |
| 2026-05-07 10:38 | 53.92637 | 22.88819 | 29873 ft | 486 kts | 11° |
| 2026-05-07 10:39 | 53.99175 | 22.91736 | 29871 ft | 486 kts | 11° |
| 2026-05-07 10:39 | 54.05714 | 22.94657 | 29878 ft | 486 kts | 11° |
| 2026-05-07 10:40 | 54.12220 | 22.97570 | 29894 ft | 486 kts | 11° |
| 2026-05-07 10:40 | 54.18803 | 23.00517 | 29896 ft | 486 kts | 11° |
| 2026-05-07 10:41 | 54.25339 | 23.03453 | 29896 ft | 486 kts | 11° |
| 2026-05-07 10:41 | 54.31871 | 23.06385 | 29900 ft | 485 kts | 9° |
| 2026-05-07 10:42 | 54.38409 | 23.08697 | 29904 ft | 482 kts | 5° |
| 2026-05-07 10:42 | 54.45007 | 23.10607 | 29896 ft | 481 kts | 5° |
| 2026-05-07 10:43 | 54.51603 | 23.12578 | 29939 ft | 481 kts | 6° |
| 2026-05-07 10:43 | 54.58240 | 23.14721 | 29904 ft | 483 kts | 6° |
| 2026-05-07 10:44 | 54.64798 | 23.16897 | 29900 ft | 484 kts | 6° |
| 2026-05-07 10:44 | 54.71412 | 23.19079 | 29890 ft | 484 kts | 6° |
| 2026-05-07 10:45 | 54.78036 | 23.21239 | 29890 ft | 484 kts | 6° |
| 2026-05-07 10:45 | 54.84665 | 23.23405 | 29892 ft | 485 kts | 6° |
| 2026-05-07 10:46 | 54.91299 | 23.25583 | 29900 ft | 485 kts | 6° |
| 2026-05-07 10:46 | 54.97936 | 23.27780 | 29898 ft | 486 kts | 6° |
| 2026-05-07 10:47 | 55.04581 | 23.29990 | 29898 ft | 486 kts | 6° |
| 2026-05-07 10:47 | 55.11225 | 23.32202 | 29898 ft | 486 kts | 6° |
| 2026-05-07 10:48 | 55.17873 | 23.34407 | 29909 ft | 486 kts | 5° |
| 2026-05-07 10:48 | 55.24531 | 23.36640 | 29544 ft | 488 kts | 6° |
| 2026-05-07 10:49 | 55.27860 | 23.37762 | 29257 ft | 488 kts | 6° |
| 2026-05-07 10:49 | 55.31194 | 23.38890 | 28976 ft | 488 kts | 6° |
| 2026-05-07 10:49 | 55.34526 | 23.40021 | 28701 ft | 488 kts | 6° |
| 2026-05-07 10:49 | 55.37860 | 23.41149 | 28426 ft | 488 kts | 6° |
| 2026-05-07 10:50 | 55.41192 | 23.42278 | 27975 ft | 486 kts | 6° |
| 2026-05-07 10:50 | 55.44509 | 23.43403 | 27115 ft | 484 kts | 6° |
| 2026-05-07 10:50 | 55.47801 | 23.44523 | 26330 ft | 481 kts | 6° |
| 2026-05-07 10:50 | 55.51081 | 23.45635 | 25545 ft | 478 kts | 6° |
| 2026-05-07 10:51 | 55.54338 | 23.46735 | 24804 ft | 475 kts | 7° |
| 2026-05-07 10:51 | 55.57581 | 23.47833 | 24023 ft | 473 kts | 7° |
| 2026-05-07 10:51 | 55.60804 | 23.48931 | 23234 ft | 471 kts | 7° |
| 2026-05-07 10:51 | 55.64006 | 23.50025 | 22478 ft | 466 kts | 7° |
| 2026-05-07 10:52 | 55.67171 | 23.51111 | 21804 ft | 461 kts | 8° |
| 2026-05-07 10:52 | 55.70300 | 23.52188 | 21141 ft | 455 kts | 8° |
| 2026-05-07 10:52 | 55.73387 | 23.53250 | 20506 ft | 450 kts | 8° |
| 2026-05-07 10:52 | 55.76442 | 23.54298 | 19904 ft | 445 kts | 8° |
| 2026-05-07 10:53 | 55.79465 | 23.55336 | 19324 ft | 440 kts | 8° |
| 2026-05-07 10:53 | 55.82459 | 23.56372 | 18750 ft | 436 kts | 8° |
| 2026-05-07 10:53 | 55.85424 | 23.57400 | 18198 ft | 433 kts | 8° |
| 2026-05-07 10:53 | 55.88367 | 23.58422 | 17604 ft | 429 kts | 8° |
| 2026-05-07 10:54 | 55.91283 | 23.59435 | 17050 ft | 425 kts | 8° |
| 2026-05-07 10:54 | 55.94174 | 23.60445 | 16488 ft | 422 kts | 8° |
| 2026-05-07 10:54 | 55.97003 | 23.61438 | 15923 ft | 419 kts | 8° |
| 2026-05-07 10:54 | 55.99850 | 23.62435 | 15342 ft | 416 kts | 8° |
| 2026-05-07 10:55 | 56.02719 | 23.63434 | 14741 ft | 413 kts | 8° |
| 2026-05-07 10:55 | 56.05494 | 23.64401 | 14140 ft | 411 kts | 8° |
| 2026-05-07 10:55 | 56.08293 | 23.65377 | 13505 ft | 409 kts | 8° |
| 2026-05-07 10:55 | 56.11074 | 23.66353 | 12858 ft | 405 kts | 8° |
| 2026-05-07 10:56 | 56.13821 | 23.67322 | 12224 ft | 400 kts | 8° |
| 2026-05-07 10:56 | 56.16536 | 23.68278 | 11596 ft | 395 kts | 8° |
| 2026-05-07 10:56 | 56.19223 | 23.69223 | 10965 ft | 391 kts | 8° |
| 2026-05-07 10:56 | 56.21860 | 23.70151 | 10625 ft | 378 kts | 8° |
| 2026-05-07 10:57 | 56.24381 | 23.71042 | 10501 ft | 361 kts | 8° |
| 2026-05-07 10:57 | 56.26789 | 23.71899 | 10377 ft | 345 kts | 8° |
| 2026-05-07 10:57 | 56.29096 | 23.72722 | 10258 ft | 331 kts | 8° |
| 2026-05-07 10:57 | 56.31315 | 23.73515 | 10140 ft | 319 kts | 8° |
| 2026-05-07 10:58 | 56.33461 | 23.74283 | 9961 ft | 310 kts | 7° |
| 2026-05-07 10:58 | 56.35535 | 23.75020 | 9805 ft | 300 kts | 7° |
| 2026-05-07 10:58 | 56.37589 | 23.75766 | 9362 ft | 301 kts | 9° |
| 2026-05-07 10:58 | 56.39656 | 23.76685 | 8542 ft | 310 kts | 12° |
| 2026-05-07 10:59 | 56.41734 | 23.77735 | 7788 ft | 309 kts | 14° |
| 2026-05-07 10:59 | 56.43796 | 23.78831 | 7036 ft | 309 kts | 14° |
| 2026-05-07 10:59 | 56.45855 | 23.79937 | 6315 ft | 307 kts | 14° |
| 2026-05-07 10:59 | 56.47845 | 23.81004 | 6051 ft | 288 kts | 14° |
| 2026-05-07 11:00 | 56.49682 | 23.81982 | 5984 ft | 262 kts | 14° |
| 2026-05-07 11:00 | 56.51346 | 23.82856 | 5988 ft | 236 kts | 14° |
| 2026-05-07 11:00 | 56.52850 | 23.83634 | 5990 ft | 214 kts | 13° |
| 2026-05-07 11:00 | 56.54281 | 23.84374 | 5790 ft | 216 kts | 13° |
| 2026-05-07 11:01 | 56.55712 | 23.85123 | 5481 ft | 212 kts | 14° |
| 2026-05-07 11:01 | 56.57120 | 23.85868 | 5207 ft | 209 kts | 15° |
| 2026-05-07 11:01 | 56.58507 | 23.86603 | 4963 ft | 207 kts | 15° |
| 2026-05-07 11:01 | 56.59883 | 23.87328 | 4746 ft | 204 kts | 15° |
| 2026-05-07 11:02 | 56.61234 | 23.88044 | 4452 ft | 200 kts | 16° |
| 2026-05-07 11:02 | 56.62555 | 23.88747 | 4209 ft | 196 kts | 16° |
| 2026-05-07 11:02 | 56.63839 | 23.89430 | 3973 ft | 194 kts | 17° |
| 2026-05-07 11:02 | 56.65138 | 23.90124 | 3743 ft | 191 kts | 17° |
| 2026-05-07 11:03 | 56.66380 | 23.90790 | 3516 ft | 187 kts | 18° |
| 2026-05-07 11:03 | 56.67621 | 23.91453 | 3293 ft | 184 kts | 18° |
| 2026-05-07 11:03 | 56.68843 | 23.92102 | 3085 ft | 182 kts | 18° |
| 2026-05-07 11:03 | 56.70051 | 23.92744 | 2993 ft | 177 kts | 17° |
| 2026-05-07 11:04 | 56.71217 | 23.93338 | 2996 ft | 172 kts | 15° |
| 2026-05-07 11:04 | 56.72396 | 23.93732 | 2997 ft | 172 kts | 11° |
| 2026-05-07 11:04 | 56.73550 | 23.93989 | 3004 ft | 165 kts | 10° |
| 2026-05-07 11:04 | 56.74678 | 23.94199 | 3014 ft | 163 kts | 8° |
| 2026-05-07 11:05 | 56.75804 | 23.94393 | 2961 ft | 162 kts | 8° |
| 2026-05-07 11:05 | 56.76924 | 23.94580 | 2799 ft | 162 kts | 8° |
| 2026-05-07 11:05 | 56.77983 | 23.94753 | 2601 ft | 141 kts | 9° |
| 2026-05-07 11:05 | 56.78912 | 23.94904 | 2422 ft | 129 kts | 10° |
| 2026-05-07 11:06 | 56.79783 | 23.95048 | 2243 ft | 124 kts | 11° |
| 2026-05-07 11:06 | 56.80633 | 23.95188 | 2083 ft | 122 kts | 9° |
| 2026-05-07 11:06 | 56.81481 | 23.95328 | 1918 ft | 121 kts | 9° |
| 2026-05-07 11:06 | 56.82321 | 23.95466 | 1753 ft | 122 kts | 9° |
| 2026-05-07 11:07 | 56.83159 | 23.95604 | 1576 ft | 120 kts | 8° |
| 2026-05-07 11:07 | 56.83994 | 23.95741 | 1410 ft | 120 kts | 8° |
| 2026-05-07 11:07 | 56.84830 | 23.95879 | 1240 ft | 120 kts | 8° |
| 2026-05-07 11:07 | 56.85663 | 23.96017 | 1079 ft | 120 kts | 9° |
| 2026-05-07 11:08 | 56.86494 | 23.96138 | 835 ft | 120 kts | 8° |
| 2026-05-07 11:08 | 56.87325 | 23.96282 | 636 ft | 119 kts | 8° |
| 2026-05-07 11:08 | 56.88161 | 23.96422 | 456 ft | 124 kts | 7° |
| 2026-05-07 11:08 | 56.89007 | 23.96569 | 278 ft | 121 kts | 6° |
| 2026-05-07 11:09 | 56.89845 | 23.96702 | 222 ft | 121 kts | 8° |
| 2026-05-07 11:09 | 56.90676 | 23.96837 | 64 ft | 118 kts | 7° |
| 2026-05-07 11:09 | 56.91411 | 23.96956 | 46 ft | 86 kts | 5° |
| 2026-05-07 11:09 | 56.91837 | 23.97027 | 44 ft | 34 kts | 5° |
| 2026-05-07 11:10 | 56.92058 | 23.97065 | 44 ft | 31 kts | 5° |
| 2026-05-07 11:10 | 56.92183 | 23.97086 | 45 ft | 23 kts | 5° |
| 2026-05-07 11:10 | 56.92342 | 23.97133 | 45 ft | 23 kts | 18° |
| 2026-05-07 11:10 | 56.92485 | 23.97272 | 44 ft | 17 kts | 36° |
| 2026-05-07 11:11 | 56.92570 | 23.97386 | 41 ft | 13 kts | 36° |
| 2026-05-07 11:11 | 56.92610 | 23.97459 | 44 ft | 1 kts | 64° |
| 2026-05-07 11:11 | 56.92614 | 23.97478 | 44 ft | 2 kts | 73° |
| 2026-05-07 11:11 | 56.92608 | 23.97528 | 44 ft | 5 kts | 117° |
| 2026-05-07 11:12 | 56.92598 | 23.97540 | 44 ft | 3 kts | 155° |
| 2026-05-07 11:12 | 56.92554 | 23.97543 | 44 ft | 8 kts | 184° |
| 2026-05-07 11:12 | 56.92493 | 23.97529 | 44 ft | 10 kts | 188° |
| 2026-05-07 11:12 | 56.92418 | 23.97515 | 44 ft | 11 kts | 186° |
| 2026-05-07 11:13 | 56.92351 | 23.97500 | 44 ft | 10 kts | 187° |
| 2026-05-07 11:13 | 56.92280 | 23.97484 | 44 ft | 11 kts | 185° |
| 2026-05-07 11:13 | 56.92202 | 23.97471 | 44 ft | 12 kts | 185° |
| 2026-05-07 11:13 | 56.92116 | 23.97457 | 44 ft | 13 kts | 185° |
| 2026-05-07 11:14 | 56.92027 | 23.97443 | 44 ft | 10 kts | 185° |
| 2026-05-07 11:14 | 56.91971 | 23.97469 | 44 ft | 8 kts | 124° |
| 2026-05-07 11:14 | 56.91961 | 23.97582 | 44 ft | 10 kts | 96° |
| 2026-05-07 11:14 | 56.91958 | 23.97642 | 44 ft | 4 kts | 95° |
| 2026-05-07 11:15 | 56.91953 | 23.97704 | 44 ft | 6 kts | 109° |
| 2026-05-07 11:15 | 56.91918 | 23.97735 | 44 ft | 6 kts | 180° |
| 2026-05-07 11:15 | 56.91885 | 23.97730 | 44 ft | 4 kts | 185° |
| 2026-05-07 11:15 | 56.91868 | 23.97702 | 44 ft | 4 kts | 261° |
| 2026-05-07 11:16 | 56.91871 | 23.97649 | 44 ft | 3 kts | 275° |
| 2026-05-07 11:16 | 56.91872 | 23.97636 | 44 ft | 0 kts | 275° |